Time;durP1;ratioP1;P1;durP2;ratioP2;P2;SDS_P1;SDS_P2;PMS_P1;PMS_P2;Temp;Humidity;BMP_temperature;BMP_pressure;BME280_temperature;BME280_humidity;BME280_pressure;Samples;Min_cycle;Max_cycle;Signal;HPM_P1;HPM_P2
2024/01/18 00:01:53;;;;;;;18.08;12.27;;;;;;;13.09;48.11;99505.69;4952774;29;20380;-37
2024/01/18 00:04:20;;;;;;;16.40;10.65;;;;;;;13.09;47.94;99500.38;4949423;29;20122;-36
2024/01/18 00:06:47;;;;;;;16.50;11.52;;;;;;;13.09;48.17;99511.03;4950752;28;20059;-34
2024/01/18 00:09:13;;;;;;;19.10;11.80;;;;;;;13.08;48.10;99512.00;4949633;29;20083;-34
2024/01/18 00:11:40;;;;;;;16.38;11.00;;;;;;;13.08;48.36;99521.81;4947801;29;20060;-36
2024/01/18 00:14:07;;;;;;;15.40;10.52;;;;;;;13.08;47.97;99524.47;4949025;29;20098;-36
2024/01/18 00:16:34;;;;;;;14.93;10.13;;;;;;;13.07;48.06;99522.81;4947939;28;20103;-34
2024/01/18 00:19:01;;;;;;;15.88;10.73;;;;;;;13.06;47.94;99531.75;4943402;28;20055;-35
2024/01/18 00:21:28;;;;;;;16.35;10.93;;;;;;;13.07;48.21;99530.81;4946036;28;20043;-36
2024/01/18 00:23:55;;;;;;;17.30;11.23;;;;;;;13.08;48.27;99537.78;4940533;29;20044;-35
2024/01/18 00:26:22;;;;;;;14.05;9.35;;;;;;;13.07;48.29;99536.94;4944704;29;20051;-35
2024/01/18 00:28:48;;;;;;;15.35;10.10;;;;;;;13.11;47.85;99550.78;4942020;29;20237;-35
2024/01/18 00:31:15;;;;;;;13.95;9.52;;;;;;;13.20;48.56;99549.03;4944246;28;20423;-34
2024/01/18 00:33:42;;;;;;;14.77;10.13;;;;;;;13.34;47.68;99549.31;4945202;29;20046;-37
2024/01/18 00:36:09;;;;;;;14.88;10.05;;;;;;;13.52;47.57;99545.81;4947372;28;20099;-36
2024/01/18 00:38:36;;;;;;;12.38;8.65;;;;;;;13.72;47.35;99538.44;4947633;28;20114;-34
2024/01/18 00:41:03;;;;;;;12.60;8.88;;;;;;;13.87;47.35;99544.84;4945708;28;20051;-37
2024/01/18 00:43:29;;;;;;;13.23;8.95;;;;;;;14.02;46.95;99550.41;4946802;29;20055;-36
2024/01/18 00:45:56;;;;;;;13.45;8.73;;;;;;;14.15;46.55;99549.97;4946192;29;20082;-36
2024/01/18 00:48:23;;;;;;;12.60;8.85;;;;;;;14.27;46.29;99548.69;4942061;29;20090;-37
2024/01/18 00:50:49;;;;;;;11.52;8.38;;;;;;;14.37;46.49;99552.06;4944801;29;20054;-36
2024/01/18 00:53:16;;;;;;;12.90;8.57;;;;;;;14.45;45.94;99557.41;4943528;28;20427;-36
2024/01/18 00:55:43;;;;;;;13.18;8.57;;;;;;;14.50;45.96;99560.47;4947651;29;20055;-38
2024/01/18 00:58:09;;;;;;;11.48;7.68;;;;;;;14.50;46.16;99564.97;4946042;29;20058;-35
2024/01/18 01:00:36;;;;;;;13.30;8.82;;;;;;;14.46;45.53;99567.06;4941237;28;20062;-36
2024/01/18 01:03:03;;;;;;;11.45;7.78;;;;;;;14.44;46.26;99578.91;4941654;29;20075;-36
2024/01/18 01:05:29;;;;;;;11.15;7.63;;;;;;;14.39;45.92;99571.41;4943862;28;20043;-37
2024/01/18 01:07:56;;;;;;;11.32;7.78;;;;;;;14.39;45.81;99582.06;4941692;29;20114;-37
2024/01/18 01:10:23;;;;;;;11.68;8.23;;;;;;;14.41;46.01;99584.56;4942768;29;20054;-35
2024/01/18 01:12:49;;;;;;;11.45;7.80;;;;;;;14.39;45.97;99587.41;4943574;29;20517;-36
2024/01/18 01:15:16;;;;;;;10.15;7.00;;;;;;;14.33;46.31;99582.69;4942248;28;20051;-35
2024/01/18 01:17:43;;;;;;;12.35;8.02;;;;;;;14.28;45.67;99585.00;4939293;29;20051;-35
2024/01/18 01:20:10;;;;;;;12.05;7.80;;;;;;;14.20;45.88;99588.47;4941231;29;20133;-36
2024/01/18 01:22:37;;;;;;;9.15;6.55;;;;;;;14.13;45.97;99587.44;4941566;29;20451;-35
2024/01/18 01:25:04;;;;;;;10.77;7.38;;;;;;;14.05;46.38;99593.56;4945437;29;20074;-36
2024/01/18 01:27:31;;;;;;;9.98;7.07;;;;;;;13.97;46.27;99598.00;4941871;28;20367;-35
2024/01/18 01:29:58;;;;;;;10.70;6.97;;;;;;;13.88;46.73;99599.78;4939770;29;20064;-35
2024/01/18 01:32:24;;;;;;;9.85;6.88;;;;;;;13.78;46.98;99599.88;4944751;28;20079;-36
2024/01/18 01:34:51;;;;;;;9.63;6.78;;;;;;;13.75;47.03;99594.06;4942745;29;20396;-36
2024/01/18 01:37:18;;;;;;;9.05;6.15;;;;;;;13.76;47.11;99599.22;4944972;28;20056;-37
2024/01/18 01:39:46;;;;;;;10.20;6.60;;;;;;;13.85;47.05;99596.59;4943964;29;20074;-35
2024/01/18 01:42:12;;;;;;;8.82;6.55;;;;;;;13.96;46.91;99602.50;4945552;28;20058;-35
2024/01/18 01:44:39;;;;;;;9.52;6.63;;;;;;;14.08;46.26;99608.41;4945525;28;20142;-35
2024/01/18 01:47:05;;;;;;;9.63;6.40;;;;;;;14.20;46.27;99607.13;4942777;29;20055;-36
2024/01/18 01:49:32;;;;;;;9.45;6.13;;;;;;;14.32;46.10;99607.69;4944819;28;20047;-36
2024/01/18 01:52:00;;;;;;;8.77;6.43;;;;;;;14.46;46.26;99608.91;4945692;29;20055;-36
2024/01/18 01:54:29;;;;;;;9.38;6.25;;;;;;;14.55;45.59;99610.63;4943450;28;20058;-36
2024/01/18 01:56:59;;;;;;;9.55;6.53;;;;;;;14.65;45.63;99614.00;4941885;29;20059;-37
2024/01/18 01:59:26;;;;;;;8.27;5.82;;;;;;;14.75;45.09;99617.38;4944703;29;20044;-36
2024/01/18 02:01:53;;;;;;;9.88;6.45;;;;;;;14.82;45.15;99615.72;4946064;29;20138;-35
2024/01/18 02:04:20;;;;;;;7.43;5.47;;;;;;;14.88;44.86;99616.09;4945880;29;20051;-36
2024/01/18 02:06:51;;;;;;;8.88;6.25;;;;;;;14.93;45.19;99627.94;4944015;28;20407;-36
2024/01/18 02:09:18;;;;;;;7.65;5.68;;;;;;;14.96;44.71;99632.13;4946018;29;20513;-37
2024/01/18 02:11:45;;;;;;;7.93;5.57;;;;;;;14.99;45.24;99631.75;4943703;29;20059;-36
2024/01/18 02:14:12;;;;;;;7.22;5.13;;;;;;;14.98;44.44;99630.94;4938377;29;20858;-35
2024/01/18 02:16:39;;;;;;;7.68;5.50;;;;;;;14.97;44.67;99631.09;4941494;28;20110;-34
2024/01/18 02:19:06;;;;;;;6.97;5.18;;;;;;;14.94;45.00;99640.25;4942667;28;20078;-36
2024/01/18 02:21:33;;;;;;;7.60;5.18;;;;;;;14.91;44.68;99642.41;4943161;28;20051;-34
2024/01/18 02:24:21;;;;;;;8.52;5.85;;;;;;;14.85;45.25;99635.06;4940946;29;20435;-35
2024/01/18 02:26:48;;;;;;;7.65;5.45;;;;;;;14.82;45.56;99642.38;4946143;29;20102;-35
2024/01/18 02:29:14;;;;;;;6.47;4.78;;;;;;;14.78;44.99;99643.72;4945930;29;20091;-37
2024/01/18 02:31:41;;;;;;;6.90;4.97;;;;;;;14.75;45.62;99638.72;4943584;28;20059;-35
2024/01/18 02:34:10;;;;;;;7.45;5.38;;;;;;;14.73;45.71;99640.69;4947287;29;20047;-35
2024/01/18 02:36:37;;;;;;;6.50;4.93;;;;;;;14.66;45.87;99636.16;4941189;28;20047;-37
2024/01/18 02:39:03;;;;;;;7.95;5.28;;;;;;;14.62;45.90;99632.16;4948259;29;20134;-36
2024/01/18 02:41:31;;;;;;;7.47;5.07;;;;;;;14.61;45.21;99628.66;4944752;28;20065;-35
2024/01/18 02:44:00;;;;;;;8.00;5.25;;;;;;;14.68;45.57;99642.19;4948883;29;20902;-37
2024/01/18 02:46:32;;;;;;;7.47;4.80;;;;;;;14.78;45.14;99643.72;4947590;28;20058;-39
2024/01/18 02:48:59;;;;;;;7.38;5.00;;;;;;;14.88;44.81;99648.09;4949252;29;20059;-37
2024/01/18 02:51:26;;;;;;;7.20;4.57;;;;;;;14.96;45.30;99642.78;4946080;28;20343;-37
2024/01/18 02:53:53;;;;;;;7.75;4.50;;;;;;;15.05;44.77;99644.47;4949320;28;20692;-36
2024/01/18 02:56:21;;;;;;;7.85;5.03;;;;;;;15.13;44.34;99639.16;4946945;29;20337;-37
2024/01/18 02:58:48;;;;;;;6.80;4.60;;;;;;;15.21;45.04;99639.16;4944944;28;20051;-37
2024/01/18 03:01:14;;;;;;;5.72;4.07;;;;;;;15.27;44.92;99646.50;4943089;29;20055;-38
2024/01/18 03:03:41;;;;;;;6.78;4.30;;;;;;;15.33;44.65;99644.19;4946995;29;20054;-36
2024/01/18 03:06:08;;;;;;;5.47;3.78;;;;;;;15.36;44.54;99649.19;4946133;28;20047;-39
2024/01/18 03:08:36;;;;;;;7.18;4.20;;;;;;;15.38;44.76;99652.53;4946710;28;20130;-38
2024/01/18 03:11:02;;;;;;;5.90;4.03;;;;;;;15.34;44.32;99652.00;4945754;29;20454;-37
2024/01/18 03:13:29;;;;;;;5.80;4.03;;;;;;;15.24;44.11;99649.50;4947446;28;20485;-36
2024/01/18 03:15:56;;;;;;;5.35;3.80;;;;;;;15.17;44.02;99653.00;4946561;28;20135;-36
2024/01/18 03:18:22;;;;;;;6.47;4.10;;;;;;;15.06;44.24;99646.97;4944913;29;20399;-37
2024/01/18 03:20:49;;;;;;;6.00;3.97;;;;;;;14.97;44.58;99647.13;4945977;29;20470;-37
2024/01/18 03:23:16;;;;;;;5.53;3.85;;;;;;;14.91;45.56;99651.25;4947812;28;20090;-36
2024/01/18 03:25:42;;;;;;;5.15;3.85;;;;;;;14.85;45.26;99656.41;4943845;28;20131;-35
2024/01/18 03:28:09;;;;;;;7.00;3.78;;;;;;;14.82;44.96;99661.06;4944118;28;20086;-35
2024/01/18 03:30:35;;;;;;;5.03;3.80;;;;;;;14.84;45.66;99655.59;4944312;29;20054;-35
2024/01/18 03:33:02;;;;;;;6.93;3.80;;;;;;;14.82;45.44;99670.91;4945503;29;20051;-36
2024/01/18 03:35:29;;;;;;;5.43;3.88;;;;;;;14.80;44.93;99673.75;4943349;29;20070;-36
2024/01/18 03:37:56;;;;;;;5.82;3.75;;;;;;;14.75;44.69;99675.19;4945046;29;20117;-36
2024/01/18 03:40:22;;;;;;;5.28;3.80;;;;;;;14.65;45.07;99678.00;4945250;29;20129;-36
2024/01/18 03:42:49;;;;;;;5.22;3.60;;;;;;;14.60;45.86;99684.84;4945305;28;20135;-37
2024/01/18 03:45:17;;;;;;;5.82;3.80;;;;;;;14.56;45.80;99681.66;4943182;29;20048;-36
2024/01/18 03:47:44;;;;;;;4.88;3.38;;;;;;;14.62;45.50;99675.66;4946155;29;20059;-37
2024/01/18 03:50:14;;;;;;;4.13;3.10;;;;;;;14.71;45.49;99680.06;4944092;28;20459;-35
2024/01/18 03:52:40;;;;;;;4.45;3.20;;;;;;;14.80;45.10;99671.06;4945041;28;20184;-36
2024/01/18 03:55:07;;;;;;;5.28;3.55;;;;;;;14.90;45.71;99672.75;4942682;29;20047;-35
2024/01/18 03:57:34;;;;;;;5.38;3.05;;;;;;;14.97;44.94;99663.13;4942748;28;20418;-35
2024/01/18 04:00:02;;;;;;;3.33;2.65;;;;;;;15.06;44.40;99662.13;4943765;29;20055;-35
2024/01/18 04:02:28;;;;;;;3.97;3.10;;;;;;;15.17;44.71;99658.34;4945929;28;20450;-37
2024/01/18 04:04:55;;;;;;;5.28;2.95;;;;;;;15.25;45.09;99661.03;4947162;28;20055;-39
2024/01/18 04:07:22;;;;;;;6.63;3.08;;;;;;;15.33;44.50;99661.03;4944861;28;20051;-36
2024/01/18 04:09:49;;;;;;;4.32;3.30;;;;;;;15.40;44.17;99662.03;4943510;29;20138;-36
2024/01/18 04:12:16;;;;;;;3.83;2.85;;;;;;;15.46;43.82;99665.88;4948012;29;20134;-36
2024/01/18 04:14:45;;;;;;;4.43;2.85;;;;;;;15.50;43.92;99669.88;4942293;29;20151;-38
2024/01/18 04:17:12;;;;;;;3.95;2.92;;;;;;;15.50;44.63;99673.38;4944042;29;20051;-37
2024/01/18 04:19:39;;;;;;;4.68;2.95;;;;;;;15.44;43.86;99676.72;4944638;28;20055;-37
2024/01/18 04:22:06;;;;;;;5.18;3.15;;;;;;;15.36;43.99;99675.91;4947339;29;20062;-35
2024/01/18 04:24:33;;;;;;;5.10;2.97;;;;;;;15.27;44.74;99683.84;4942654;29;20075;-35
2024/01/18 04:27:00;;;;;;;3.63;2.58;;;;;;;15.19;45.33;99680.34;4943847;29;20078;-36
2024/01/18 04:29:28;;;;;;;3.55;2.50;;;;;;;15.07;44.48;99698.50;4940277;29;20055;-36
2024/01/18 04:31:55;;;;;;;4.75;2.90;;;;;;;14.96;45.63;99696.16;4941032;28;20407;-35
2024/01/18 04:34:21;;;;;;;4.00;2.50;;;;;;;14.90;45.41;99696.78;4945764;29;20314;-35
2024/01/18 04:36:48;;;;;;;3.58;2.63;;;;;;;14.86;44.79;99693.59;4945179;29;20051;-36
2024/01/18 04:39:15;;;;;;;4.25;2.40;;;;;;;14.83;44.78;99685.91;4946483;29;20055;-34
2024/01/18 04:41:41;;;;;;;3.25;2.55;;;;;;;14.82;45.31;99684.25;4947489;28;20047;-36
2024/01/18 04:44:08;;;;;;;4.07;2.53;;;;;;;14.82;44.79;99689.56;4939724;29;20098;-35
2024/01/18 04:46:35;;;;;;;4.53;3.05;;;;;;;14.81;44.77;99691.41;4945352;29;20116;-35
2024/01/18 04:49:02;;;;;;;4.20;2.80;;;;;;;14.80;45.00;99696.91;4944859;28;20335;-35
2024/01/18 04:51:29;;;;;;;3.85;2.60;;;;;;;14.72;45.28;99703.06;4942894;28;20671;-35
2024/01/18 04:53:56;;;;;;;5.45;2.92;;;;;;;14.66;45.00;99708.19;4944198;28;20051;-36
2024/01/18 04:56:23;;;;;;;4.25;2.28;;;;;;;14.62;45.68;99706.81;4943318;29;20055;-35
2024/01/18 04:58:50;;;;;;;3.58;2.55;;;;;;;14.63;45.45;99709.31;4945702;29;20106;-35
2024/01/18 05:01:17;;;;;;;4.55;2.50;;;;;;;14.72;44.94;99716.38;4942417;29;20066;-35
2024/01/18 05:03:47;;;;;;;4.70;2.50;;;;;;;14.82;45.20;99711.75;4947049;29;20098;-36
2024/01/18 05:06:14;;;;;;;3.47;2.20;;;;;;;14.91;44.93;99714.44;4943163;29;20058;-36
2024/01/18 05:08:41;;;;;;;3.88;2.20;;;;;;;14.97;44.64;99721.81;4942608;29;20505;-36
2024/01/18 05:11:07;;;;;;;3.70;2.33;;;;;;;15.02;44.66;99725.66;4939924;28;20059;-37
2024/01/18 05:13:34;;;;;;;3.92;2.50;;;;;;;15.07;44.95;99725.19;4944288;29;20043;-36
2024/01/18 05:16:01;;;;;;;4.13;2.90;;;;;;;15.15;44.34;99729.72;4939208;29;20054;-39
2024/01/18 05:18:28;;;;;;;5.80;3.30;;;;;;;15.21;44.35;99734.41;4940999;28;20126;-37
2024/01/18 05:20:55;;;;;;;6.88;4.18;;;;;;;15.28;44.16;99733.59;4942856;28;20055;-36
2024/01/18 05:23:22;;;;;;;5.45;3.80;;;;;;;15.35;44.05;99738.28;4938720;28;20051;-37
2024/01/18 05:25:49;;;;;;;7.15;4.05;;;;;;;15.38;44.59;99737.97;4938858;29;20044;-36
2024/01/18 05:28:15;;;;;;;7.22;4.53;;;;;;;15.38;44.32;99744.13;4940697;29;20055;-36
2024/01/18 05:30:42;;;;;;;8.50;5.05;;;;;;;15.32;44.58;99750.13;4938926;29;20134;-36
2024/01/18 05:33:09;;;;;;;15.48;5.57;;;;;;;15.24;44.73;99750.94;4941177;29;20396;-35
2024/01/18 05:35:35;;;;;;;9.30;5.65;;;;;;;15.16;45.05;99752.75;4942695;29;20042;-35
2024/01/18 05:38:03;;;;;;;8.80;5.30;;;;;;;15.05;44.77;99757.38;4944205;29;20118;-37
2024/01/18 05:40:30;;;;;;;9.48;5.40;;;;;;;14.96;44.69;99755.69;4944640;29;20420;-35
2024/01/18 05:42:56;;;;;;;11.13;6.40;;;;;;;14.89;44.94;99757.31;4945924;29;20117;-35
2024/01/18 05:45:23;;;;;;;10.98;5.88;;;;;;;14.85;45.61;99773.78;4946404;29;20114;-36
2024/01/18 05:47:50;;;;;;;9.18;5.53;;;;;;;14.80;45.73;99767.09;4946781;28;20047;-35
2024/01/18 05:50:16;;;;;;;11.23;6.30;;;;;;;14.80;44.91;99783.09;4942324;29;20487;-39
2024/01/18 05:52:43;;;;;;;9.05;5.82;;;;;;;14.77;44.83;99782.59;4943944;28;20056;-35
2024/01/18 05:55:10;;;;;;;8.93;5.65;;;;;;;14.76;45.24;99771.09;4940580;29;20050;-36
2024/01/18 05:57:37;;;;;;;12.00;7.03;;;;;;;14.75;45.46;99779.22;4942928;28;20143;-35
2024/01/18 06:00:06;;;;;;;10.77;6.35;;;;;;;14.72;44.85;99779.56;4940741;28;20078;-35
2024/01/18 06:02:33;;;;;;;12.57;6.72;;;;;;;14.63;44.99;99781.31;4941041;28;20644;-36
2024/01/18 06:05:00;;;;;;;11.23;7.10;;;;;;;14.54;45.78;99785.78;4938804;29;20424;-35
2024/01/18 06:07:28;;;;;;;12.20;6.60;;;;;;;14.51;45.51;99782.56;4941015;29;20071;-34
2024/01/18 06:09:55;;;;;;;11.40;6.55;;;;;;;14.55;45.39;99786.59;4941219;28;20059;-35
2024/01/18 06:12:21;;;;;;;8.95;6.15;;;;;;;14.66;45.80;99794.34;4945822;28;20730;-36
2024/01/18 06:14:48;;;;;;;11.57;7.03;;;;;;;14.79;45.85;99796.59;4940999;28;20497;-35
2024/01/18 06:17:14;;;;;;;12.05;6.10;;;;;;;14.88;45.46;99805.50;4945506;29;20054;-35
2024/01/18 06:19:41;;;;;;;11.02;6.35;;;;;;;14.98;45.06;99808.88;4939913;29;20102;-35
2024/01/18 06:22:08;;;;;;;9.88;6.05;;;;;;;15.09;44.95;99807.75;4942255;29;20062;-35
2024/01/18 06:24:35;;;;;;;11.98;6.80;;;;;;;15.18;44.27;99807.63;4942616;29;20142;-36
2024/01/18 06:27:02;;;;;;;12.98;6.32;;;;;;;15.25;44.92;99811.34;4943463;29;20500;-35
2024/01/18 06:29:30;;;;;;;11.18;6.90;;;;;;;15.33;44.63;99823.06;4945675;29;20047;-35
2024/01/18 06:31:57;;;;;;;12.48;7.35;;;;;;;15.38;44.42;99823.41;4946922;29;20059;-35
2024/01/18 06:34:24;;;;;;;13.27;6.70;;;;;;;15.40;44.95;99818.75;4946397;29;20078;-36
2024/01/18 06:36:51;;;;;;;12.30;7.80;;;;;;;15.39;44.61;99825.06;4946791;29;20050;-37
2024/01/18 06:39:18;;;;;;;11.25;6.50;;;;;;;15.30;44.46;99821.53;4942572;29;20115;-37
2024/01/18 06:41:44;;;;;;;13.13;6.93;;;;;;;15.23;44.34;99831.16;4941010;28;20435;-36
2024/01/18 06:44:11;;;;;;;11.75;7.47;;;;;;;15.14;45.06;99832.97;4942425;28;20098;-35
2024/01/18 06:46:38;;;;;;;11.77;6.70;;;;;;;15.04;44.51;99830.44;4947180;29;20078;-36
2024/01/18 06:49:04;;;;;;;10.85;6.85;;;;;;;14.94;44.64;99834.19;4944738;28;20051;-36
2024/01/18 06:51:31;;;;;;;11.35;6.78;;;;;;;14.88;45.10;99837.50;4944294;29;20482;-34
2024/01/18 06:53:58;;;;;;;11.68;7.05;;;;;;;14.84;45.42;99844.97;4941144;28;20063;-37
2024/01/18 06:56:25;;;;;;;12.23;6.82;;;;;;;14.79;44.91;99845.47;4939804;28;20114;-38
2024/01/18 06:58:52;;;;;;;10.73;6.93;;;;;;;14.75;45.03;99849.44;4940306;28;20051;-35
2024/01/18 07:01:19;;;;;;;12.68;7.38;;;;;;;14.71;45.49;99853.41;4947242;29;20146;-35
2024/01/18 07:03:46;;;;;;;11.90;6.85;;;;;;;14.66;45.46;99862.84;4946695;29;20051;-37
2024/01/18 07:06:12;;;;;;;10.73;6.75;;;;;;;14.61;45.12;99862.50;4946366;29;20051;-36
2024/01/18 07:08:39;;;;;;;11.07;6.38;;;;;;;14.58;45.63;99866.28;4945837;28;20137;-37
2024/01/18 07:11:06;;;;;;;12.00;6.55;;;;;;;14.54;45.75;99870.25;4945919;29;20059;-36
2024/01/18 07:13:32;;;;;;;10.90;6.93;;;;;;;14.48;46.13;99878.88;4946529;28;20110;-36
2024/01/18 07:15:59;;;;;;;10.23;6.53;;;;;;;14.44;46.21;99874.84;4945677;28;20134;-36
2024/01/18 07:18:26;;;;;;;9.05;6.03;;;;;;;14.43;46.03;99876.66;4949342;28;20752;-36
2024/01/18 07:20:53;;;;;;;10.38;6.22;;;;;;;14.45;45.60;99879.16;4950598;28;20137;-37
2024/01/18 07:23:20;;;;;;;10.25;6.18;;;;;;;14.45;45.28;99887.16;4944493;29;20047;-36
2024/01/18 07:25:46;;;;;;;10.60;6.43;;;;;;;14.46;45.81;99888.81;4944837;28;20130;-35
2024/01/18 07:28:13;;;;;;;10.52;6.43;;;;;;;14.45;45.84;99884.50;4946675;29;20062;-34
2024/01/18 07:30:40;;;;;;;9.60;5.85;;;;;;;14.42;45.64;99887.47;4944899;29;20463;-35
2024/01/18 07:33:07;;;;;;;9.75;5.85;;;;;;;14.40;45.31;99898.28;4947833;29;20474;-35
2024/01/18 07:35:34;;;;;;;10.40;6.10;;;;;;;14.37;45.63;99903.09;4949649;28;20059;-35
2024/01/18 07:38:01;;;;;;;9.85;6.38;;;;;;;14.31;45.66;99905.38;4945271;29;20082;-34
2024/01/18 07:40:27;;;;;;;10.45;6.43;;;;;;;14.26;45.74;99902.31;4949995;29;20095;-35
2024/01/18 07:42:54;;;;;;;9.05;5.80;;;;;;;14.21;46.03;99904.59;4942241;29;20086;-35
2024/01/18 07:45:21;;;;;;;10.00;5.95;;;;;;;14.18;45.83;99904.91;4947708;29;20352;-34
2024/01/18 07:47:48;;;;;;;9.02;5.85;;;;;;;14.12;45.66;99908.19;4946423;28;20346;-35
2024/01/18 07:50:15;;;;;;;9.25;5.85;;;;;;;14.06;45.54;99916.75;4943646;29;20078;-35
2024/01/18 07:52:59;;;;;;;8.57;5.63;;;;;;;14.01;45.73;99921.72;4945927;29;20055;-35
2024/01/18 07:55:26;;;;;;;8.95;5.43;;;;;;;13.96;45.89;99919.50;4945862;28;20043;-35
2024/01/18 07:57:53;;;;;;;9.10;5.38;;;;;;;13.90;46.21;99929.91;4946172;29;20044;-35
2024/01/18 08:00:20;;;;;;;8.25;5.05;;;;;;;13.83;46.11;99932.34;4945110;28;20061;-36
2024/01/18 08:02:47;;;;;;;8.90;5.68;;;;;;;13.77;46.19;99932.91;4942832;28;20062;-35
2024/01/18 08:05:14;;;;;;;10.02;5.47;;;;;;;13.72;46.53;99943.19;4944080;29;20122;-36
2024/01/18 08:07:40;;;;;;;8.13;4.90;;;;;;;13.67;46.45;99948.09;4944436;28;20059;-36
2024/01/18 08:10:11;;;;;;;8.10;5.18;;;;;;;13.63;46.79;99952.03;4944264;29;20135;-37
2024/01/18 08:12:37;;;;;;;8.80;5.10;;;;;;;13.57;46.91;99951.66;4942415;28;20114;-35
2024/01/18 08:15:05;;;;;;;8.93;5.32;;;;;;;13.52;47.03;99961.06;4944985;28;20058;-34
2024/01/18 08:17:32;;;;;;;8.52;5.30;;;;;;;13.48;47.08;99963.19;4944411;29;20098;-36
2024/01/18 08:19:59;;;;;;;8.02;4.97;;;;;;;13.44;47.44;99963.63;4944892;28;20448;-35
2024/01/18 08:22:26;;;;;;;7.97;5.00;;;;;;;13.41;47.27;99963.91;4942084;28;20058;-35
2024/01/18 08:24:52;;;;;;;8.85;5.38;;;;;;;13.36;47.34;99967.00;4942068;29;20145;-35
2024/01/18 08:27:19;;;;;;;8.60;5.32;;;;;;;13.34;47.67;99975.13;4942733;29;20053;-35
2024/01/18 08:29:47;;;;;;;8.18;4.82;;;;;;;13.33;47.63;99981.44;4940707;28;20051;-35
2024/01/18 08:32:14;;;;;;;7.82;5.18;;;;;;;13.34;47.81;99979.59;4942782;29;20348;-35
2024/01/18 08:34:40;;;;;;;9.18;5.20;;;;;;;13.30;47.96;99984.38;4942499;29;20130;-35
2024/01/18 08:37:11;;;;;;;8.80;5.40;;;;;;;13.27;47.71;99995.31;4944161;29;20532;-36
2024/01/18 08:39:38;;;;;;;7.85;4.53;;;;;;;13.34;48.02;99996.41;4938472;29;20413;-36
2024/01/18 08:42:05;;;;;;;7.57;4.65;;;;;;;13.44;48.42;100007.03;4943747;28;20059;-34
2024/01/18 08:44:32;;;;;;;8.52;5.47;;;;;;;13.53;47.96;100008.84;4944100;29;20055;-36
2024/01/18 08:46:59;;;;;;;9.45;4.72;;;;;;;13.62;48.01;100008.94;4942225;28;20432;-35
2024/01/18 08:49:26;;;;;;;9.45;4.88;;;;;;;13.69;48.35;100016.22;4943489;29;20109;-35
2024/01/18 08:51:52;;;;;;;9.77;4.97;;;;;;;13.78;48.42;100022.47;4944279;29;20052;-36
2024/01/18 08:54:22;;;;;;;11.82;4.88;;;;;;;13.86;48.15;100030.56;4936347;29;20051;-34
2024/01/18 08:56:49;;;;;;;8.27;4.40;;;;;;;13.95;48.07;100020.88;4943839;29;20346;-37
2024/01/18 08:59:16;;;;;;;8.15;4.30;;;;;;;14.04;48.17;100020.00;4935518;29;20059;-35
2024/01/18 09:01:42;;;;;;;8.88;4.40;;;;;;;14.11;48.03;100030.88;4936005;29;20163;-34
2024/01/18 09:04:09;;;;;;;10.55;5.05;;;;;;;14.17;48.29;100035.63;4946064;29;20082;-35
2024/01/18 09:06:37;;;;;;;9.18;5.10;;;;;;;14.22;48.10;100039.53;4939738;28;20051;-35
2024/01/18 09:09:09;;;;;;;7.25;4.55;;;;;;;14.28;48.58;100044.28;4940658;29;20087;-34
2024/01/18 09:11:37;;;;;;;7.95;4.32;;;;;;;14.33;48.29;100054.47;4944716;28;20355;-39
2024/01/18 09:14:04;;;;;;;9.27;5.05;;;;;;;14.37;48.44;100049.69;4946330;28;20055;-38
2024/01/18 09:16:31;;;;;;;7.80;4.20;;;;;;;14.43;48.01;100054.41;4949321;28;20098;-36
2024/01/18 09:18:59;;;;;;;8.23;4.78;;;;;;;14.46;48.37;100056.78;4941480;29;20079;-36
2024/01/18 09:21:44;;;;;;;7.40;4.30;;;;;;;14.51;48.09;100059.88;4940083;28;20062;-36
2024/01/18 09:24:12;;;;;;;10.77;4.55;;;;;;;14.55;47.56;100059.44;4946320;29;20048;-36
2024/01/18 09:26:39;;;;;;;7.82;4.38;;;;;;;14.59;47.55;100069.78;4941467;28;20633;-35
2024/01/18 09:29:06;;;;;;;8.82;4.78;;;;;;;14.62;47.67;100067.66;4941115;29;20085;-36
2024/01/18 09:31:33;;;;;;;7.55;4.03;;;;;;;14.66;47.77;100086.88;4944713;28;20061;-36
2024/01/18 09:34:08;;;;;;;7.57;3.97;;;;;;;14.70;47.18;100091.75;4941789;28;20055;-35
2024/01/18 09:36:36;;;;;;;6.85;4.25;;;;;;;14.73;47.05;100094.13;4941780;28;20079;-37
2024/01/18 09:39:08;;;;;;;8.07;4.20;;;;;;;14.77;47.17;100102.69;4936808;29;20063;-36
2024/01/18 09:41:35;;;;;;;5.95;3.58;;;;;;;14.80;47.44;100108.56;4947532;28;20342;-36
2024/01/18 09:44:03;;;;;;;6.88;3.72;;;;;;;14.82;47.84;100106.56;4944609;28;20436;-37
2024/01/18 09:46:30;;;;;;;5.65;3.40;;;;;;;14.88;47.67;100112.31;4943789;28;20090;-36
2024/01/18 09:48:57;;;;;;;6.68;3.47;;;;;;;14.92;47.08;100111.00;4941821;28;20109;-36
2024/01/18 09:51:30;;;;;;;7.18;3.70;;;;;;;14.96;47.08;100133.72;4937409;29;20321;-36
2024/01/18 09:54:00;;;;;;;6.97;3.95;;;;;;;15.01;47.17;100136.78;4937156;28;20151;-35
2024/01/18 09:56:29;;;;;;;8.73;3.67;;;;;;;15.06;47.34;100134.50;4938203;28;20065;-38
2024/01/18 09:58:56;;;;;;;4.60;2.88;;;;;;;15.10;47.41;100141.19;4938658;29;20051;-35
2024/01/18 10:01:24;;;;;;;8.10;3.90;;;;;;;15.16;47.00;100145.94;4940513;28;20102;-38
2024/01/18 10:03:51;;;;;;;6.10;3.47;;;;;;;15.20;47.13;100152.66;4942221;29;20051;-39
2024/01/18 10:06:19;;;;;;;5.95;3.30;;;;;;;15.26;47.00;100156.53;4941607;29;20047;-37
2024/01/18 10:08:52;;;;;;;5.53;3.08;;;;;;;15.31;46.16;100162.25;4943140;28;20050;-39
2024/01/18 10:11:19;;;;;;;6.47;3.13;;;;;;;15.37;47.08;100180.34;4940585;29;20510;-40
2024/01/18 10:13:56;;;;;;;5.97;3.38;;;;;;;15.42;46.19;100195.91;4940477;29;20051;-37
2024/01/18 10:16:36;;;;;;;5.22;3.60;;;;;;;15.47;46.70;100185.59;4944942;28;20102;-38
2024/01/18 10:19:05;;;;;;;7.75;3.25;;;;;;;15.53;46.61;100187.66;4941444;28;20142;-37
2024/01/18 10:21:35;;;;;;;7.25;3.60;;;;;;;15.58;47.17;100196.06;4941671;28;20050;-37
2024/01/18 10:24:05;;;;;;;4.25;3.08;;;;;;;15.61;46.46;100206.44;4940300;29;20416;-40
2024/01/18 10:26:35;;;;;;;5.00;2.72;;;;;;;15.67;46.85;100213.84;4943389;29;20188;-36
2024/01/18 10:29:02;;;;;;;4.55;2.55;;;;;;;15.71;46.74;100227.75;4936753;28;20047;-40
2024/01/18 10:31:33;;;;;;;7.30;3.28;;;;;;;15.74;46.79;100228.28;4937992;29;20051;-39
2024/01/18 10:34:02;;;;;;;6.03;3.13;;;;;;;15.78;45.48;100231.50;4939602;29;20059;-39
2024/01/18 10:36:29;;;;;;;4.32;2.55;;;;;;;15.82;46.21;100232.88;4938221;29;20079;-37
2024/01/18 10:38:56;;;;;;;6.28;3.30;;;;;;;15.86;45.61;100233.41;4938502;29;20288;-40
2024/01/18 10:41:22;;;;;;;4.97;2.55;;;;;;;15.88;46.55;100234.94;4940527;28;20118;-40
2024/01/18 10:43:49;;;;;;;4.97;2.95;;;;;;;15.91;45.48;100233.75;4935466;29;20110;-39
2024/01/18 10:46:17;;;;;;;3.90;2.60;;;;;;;15.92;46.21;100240.78;4940058;29;20127;-38
2024/01/18 10:48:46;;;;;;;4.45;2.55;;;;;;;15.94;46.11;100246.81;4942780;28;20450;-37
2024/01/18 10:51:13;;;;;;;5.90;3.20;;;;;;;15.95;45.66;100253.84;4942732;28;20047;-41
2024/01/18 10:53:41;;;;;;;7.10;3.25;;;;;;;15.95;45.03;100253.84;4943250;29;20147;-41
2024/01/18 10:56:08;;;;;;;5.05;2.33;;;;;;;15.94;45.32;100250.34;4947059;28;20109;-41
2024/01/18 10:58:35;;;;;;;4.78;2.38;;;;;;;15.93;44.81;100250.50;4944551;28;20056;-42
2024/01/18 11:01:03;;;;;;;5.82;2.80;;;;;;;15.91;44.11;100245.28;4945243;29;20047;-38
2024/01/18 11:03:31;;;;;;;5.95;2.70;;;;;;;15.87;44.91;100248.44;4946776;29;20087;-38
2024/01/18 11:06:00;;;;;;;5.10;2.88;;;;;;;15.83;44.07;100247.06;4947844;29;20115;-38
2024/01/18 11:08:28;;;;;;;4.03;2.08;;;;;;;15.76;44.04;100253.03;4942810;29;20043;-40
2024/01/18 11:10:55;;;;;;;3.50;2.25;;;;;;;15.76;45.14;100263.72;4944053;29;20051;-37
2024/01/18 11:13:22;;;;;;;5.43;2.85;;;;;;;15.73;44.74;100272.03;4946520;28;20091;-36
2024/01/18 11:15:52;;;;;;;4.43;2.20;;;;;;;15.75;45.00;100279.88;4943244;29;20134;-39
2024/01/18 11:18:21;;;;;;;4.25;2.42;;;;;;;15.74;44.57;100281.72;4942670;28;20047;-36
2024/01/18 11:20:57;;;;;;;4.18;2.00;;;;;;;15.74;45.24;100297.75;4939513;29;20061;-37
2024/01/18 11:23:28;;;;;;;5.32;2.42;;;;;;;15.76;44.93;100300.28;4945838;29;20340;-38
2024/01/18 11:25:55;;;;;;;3.60;1.88;;;;;;;15.72;45.15;100306.94;4946547;28;20130;-39
2024/01/18 11:28:26;;;;;;;3.80;2.17;;;;;;;15.63;44.83;100311.28;4943383;29;20048;-38
2024/01/18 11:30:53;;;;;;;3.92;1.92;;;;;;;15.55;45.29;100311.22;4946894;29;20618;-39